sensor_id;sensor_type;location;lat;lon;timestamp;P1;durP1;ratioP1;P2;durP2;ratioP2
19733;SDS011;10018;51.230;7.860;2022-07-10T00:02:05;3.83;;;1.03;;
19733;SDS011;10018;51.230;7.860;2022-07-10T00:04:30;7.87;;;1.30;;
19733;SDS011;10018;51.230;7.860;2022-07-10T00:06:56;5.67;;;1.20;;
19733;SDS011;10018;51.230;7.860;2022-07-10T00:09:23;7.37;;;1.30;;
19733;SDS011;10018;51.230;7.860;2022-07-10T00:11:49;4.40;;;1.30;;
19733;SDS011;10018;51.230;7.860;2022-07-10T00:14:14;3.27;;;1.03;;
19733;SDS011;10018;51.230;7.860;2022-07-10T00:16:40;5.60;;;1.00;;
19733;SDS011;10018;51.230;7.860;2022-07-10T00:19:06;4.20;;;1.10;;
19733;SDS011;10018;51.230;7.860;2022-07-10T00:21:31;3.57;;;1.23;;
19733;SDS011;10018;51.230;7.860;2022-07-10T00:23:57;4.97;;;1.27;;
19733;SDS011;10018;51.230;7.860;2022-07-10T00:26:22;6.07;;;1.30;;
19733;SDS011;10018;51.230;7.860;2022-07-10T00:28:48;3.80;;;1.20;;
19733;SDS011;10018;51.230;7.860;2022-07-10T00:31:13;3.60;;;0.90;;
19733;SDS011;10018;51.230;7.860;2022-07-10T00:33:39;6.77;;;1.37;;
19733;SDS011;10018;51.230;7.860;2022-07-10T00:36:05;7.73;;;1.20;;
19733;SDS011;10018;51.230;7.860;2022-07-10T00:38:31;5.93;;;1.20;;
19733;SDS011;10018;51.230;7.860;2022-07-10T00:40:57;8.37;;;1.60;;
19733;SDS011;10018;51.230;7.860;2022-07-10T00:43:23;4.30;;;1.27;;
19733;SDS011;10018;51.230;7.860;2022-07-10T00:45:48;6.33;;;1.00;;
19733;SDS011;10018;51.230;7.860;2022-07-10T00:48:15;3.87;;;1.20;;
19733;SDS011;10018;51.230;7.860;2022-07-10T00:50:41;4.23;;;1.00;;
19733;SDS011;10018;51.230;7.860;2022-07-10T00:53:09;10.67;;;1.63;;
19733;SDS011;10018;51.230;7.860;2022-07-10T00:55:36;4.53;;;0.90;;
19733;SDS011;10018;51.230;7.860;2022-07-10T00:58:02;4.47;;;0.90;;
19733;SDS011;10018;51.230;7.860;2022-07-10T01:00:35;4.10;;;1.07;;
19733;SDS011;10018;51.230;7.860;2022-07-10T01:03:04;6.13;;;1.23;;
19733;SDS011;10018;51.230;7.860;2022-07-10T01:05:30;6.40;;;1.13;;
19733;SDS011;10018;51.230;7.860;2022-07-10T01:07:56;4.00;;;1.00;;
19733;SDS011;10018;51.230;7.860;2022-07-10T01:10:22;4.77;;;1.23;;
19733;SDS011;10018;51.230;7.860;2022-07-10T01:12:47;5.83;;;1.40;;
19733;SDS011;10018;51.230;7.860;2022-07-10T01:15:13;3.70;;;1.23;;
19733;SDS011;10018;51.230;7.860;2022-07-10T01:17:38;5.73;;;1.20;;
19733;SDS011;10018;51.230;7.860;2022-07-10T01:20:08;6.90;;;1.20;;
19733;SDS011;10018;51.230;7.860;2022-07-10T01:22:35;5.13;;;1.10;;
19733;SDS011;10018;51.230;7.860;2022-07-10T01:25:02;4.87;;;1.23;;
19733;SDS011;10018;51.230;7.860;2022-07-10T01:27:28;4.20;;;1.30;;
19733;SDS011;10018;51.230;7.860;2022-07-10T01:29:54;8.13;;;1.40;;
19733;SDS011;10018;51.230;7.860;2022-07-10T01:32:19;4.13;;;1.30;;
19733;SDS011;10018;51.230;7.860;2022-07-10T01:34:45;4.47;;;1.13;;
19733;SDS011;10018;51.230;7.860;2022-07-10T01:37:12;4.87;;;1.50;;
19733;SDS011;10018;51.230;7.860;2022-07-10T01:39:37;8.10;;;1.40;;
19733;SDS011;10018;51.230;7.860;2022-07-10T01:42:03;5.83;;;1.03;;
19733;SDS011;10018;51.230;7.860;2022-07-10T01:44:29;5.27;;;1.30;;
19733;SDS011;10018;51.230;7.860;2022-07-10T01:46:54;6.33;;;1.20;;
19733;SDS011;10018;51.230;7.860;2022-07-10T01:49:20;6.00;;;1.20;;
19733;SDS011;10018;51.230;7.860;2022-07-10T01:51:45;5.60;;;1.20;;
19733;SDS011;10018;51.230;7.860;2022-07-10T01:54:11;5.77;;;1.70;;
19733;SDS011;10018;51.230;7.860;2022-07-10T01:56:36;4.97;;;1.83;;
19733;SDS011;10018;51.230;7.860;2022-07-10T01:59:03;4.13;;;1.20;;
19733;SDS011;10018;51.230;7.860;2022-07-10T02:01:29;5.53;;;1.20;;
19733;SDS011;10018;51.230;7.860;2022-07-10T02:03:55;5.47;;;1.20;;
19733;SDS011;10018;51.230;7.860;2022-07-10T02:06:40;5.13;;;1.37;;
19733;SDS011;10018;51.230;7.860;2022-07-10T02:09:06;4.73;;;1.10;;
19733;SDS011;10018;51.230;7.860;2022-07-10T02:11:31;4.73;;;1.23;;
19733;SDS011;10018;51.230;7.860;2022-07-10T02:13:57;5.10;;;1.13;;
19733;SDS011;10018;51.230;7.860;2022-07-10T02:16:22;4.93;;;1.20;;
19733;SDS011;10018;51.230;7.860;2022-07-10T02:18:48;4.53;;;1.40;;
19733;SDS011;10018;51.230;7.860;2022-07-10T02:21:13;6.13;;;1.20;;
19733;SDS011;10018;51.230;7.860;2022-07-10T02:23:39;5.87;;;1.47;;
19733;SDS011;10018;51.230;7.860;2022-07-10T02:26:05;10.23;;;1.60;;
19733;SDS011;10018;51.230;7.860;2022-07-10T02:28:31;8.27;;;1.40;;
19733;SDS011;10018;51.230;7.860;2022-07-10T02:30:57;4.63;;;1.33;;
19733;SDS011;10018;51.230;7.860;2022-07-10T02:33:23;5.50;;;1.30;;
19733;SDS011;10018;51.230;7.860;2022-07-10T02:35:49;6.23;;;1.07;;
19733;SDS011;10018;51.230;7.860;2022-07-10T02:38:15;8.00;;;1.50;;
19733;SDS011;10018;51.230;7.860;2022-07-10T02:40:41;4.73;;;1.10;;
19733;SDS011;10018;51.230;7.860;2022-07-10T02:43:06;6.30;;;1.70;;
19733;SDS011;10018;51.230;7.860;2022-07-10T02:45:32;7.23;;;1.07;;
19733;SDS011;10018;51.230;7.860;2022-07-10T02:47:57;4.43;;;1.20;;
19733;SDS011;10018;51.230;7.860;2022-07-10T02:50:23;7.67;;;1.23;;
19733;SDS011;10018;51.230;7.860;2022-07-10T02:52:48;8.37;;;1.10;;
19733;SDS011;10018;51.230;7.860;2022-07-10T02:55:14;3.97;;;1.10;;
19733;SDS011;10018;51.230;7.860;2022-07-10T02:57:39;7.13;;;1.20;;
19733;SDS011;10018;51.230;7.860;2022-07-10T03:00:05;6.77;;;1.10;;
19733;SDS011;10018;51.230;7.860;2022-07-10T03:02:31;6.53;;;1.40;;
19733;SDS011;10018;51.230;7.860;2022-07-10T03:04:57;6.83;;;1.23;;
19733;SDS011;10018;51.230;7.860;2022-07-10T03:07:22;4.93;;;1.20;;
19733;SDS011;10018;51.230;7.860;2022-07-10T03:09:48;7.27;;;1.20;;
19733;SDS011;10018;51.230;7.860;2022-07-10T03:12:14;8.50;;;1.60;;
19733;SDS011;10018;51.230;7.860;2022-07-10T03:14:39;6.00;;;1.10;;
19733;SDS011;10018;51.230;7.860;2022-07-10T03:17:05;4.53;;;1.03;;
19733;SDS011;10018;51.230;7.860;2022-07-10T03:19:30;5.83;;;1.27;;
19733;SDS011;10018;51.230;7.860;2022-07-10T03:21:58;9.43;;;1.70;;
19733;SDS011;10018;51.230;7.860;2022-07-10T03:24:23;4.53;;;1.27;;
19733;SDS011;10018;51.230;7.860;2022-07-10T03:26:49;7.37;;;1.53;;
19733;SDS011;10018;51.230;7.860;2022-07-10T03:29:14;4.03;;;1.13;;
19733;SDS011;10018;51.230;7.860;2022-07-10T03:31:40;5.70;;;1.20;;
19733;SDS011;10018;51.230;7.860;2022-07-10T03:34:06;6.17;;;1.20;;
19733;SDS011;10018;51.230;7.860;2022-07-10T03:36:31;10.03;;;1.70;;
19733;SDS011;10018;51.230;7.860;2022-07-10T03:38:57;8.23;;;1.47;;
19733;SDS011;10018;51.230;7.860;2022-07-10T03:41:22;8.20;;;1.70;;
19733;SDS011;10018;51.230;7.860;2022-07-10T03:43:48;12.07;;;1.80;;
19733;SDS011;10018;51.230;7.860;2022-07-10T03:46:13;5.87;;;1.40;;
19733;SDS011;10018;51.230;7.860;2022-07-10T03:48:39;10.63;;;1.60;;
19733;SDS011;10018;51.230;7.860;2022-07-10T03:51:04;7.50;;;1.53;;
19733;SDS011;10018;51.230;7.860;2022-07-10T03:53:30;4.83;;;1.00;;
19733;SDS011;10018;51.230;7.860;2022-07-10T03:55:55;7.27;;;1.30;;
19733;SDS011;10018;51.230;7.860;2022-07-10T03:58:21;8.90;;;1.60;;
19733;SDS011;10018;51.230;7.860;2022-07-10T04:00:46;8.03;;;1.50;;
19733;SDS011;10018;51.230;7.860;2022-07-10T04:03:12;9.57;;;1.80;;
19733;SDS011;10018;51.230;7.860;2022-07-10T04:05:38;7.83;;;1.50;;
19733;SDS011;10018;51.230;7.860;2022-07-10T04:08:04;6.73;;;1.40;;
19733;SDS011;10018;51.230;7.860;2022-07-10T04:10:31;4.13;;;1.20;;
19733;SDS011;10018;51.230;7.860;2022-07-10T04:12:57;13.30;;;1.47;;
19733;SDS011;10018;51.230;7.860;2022-07-10T04:15:23;6.13;;;1.20;;
19733;SDS011;10018;51.230;7.860;2022-07-10T04:17:50;8.33;;;1.30;;
19733;SDS011;10018;51.230;7.860;2022-07-10T04:20:16;6.17;;;1.83;;
19733;SDS011;10018;51.230;7.860;2022-07-10T04:22:42;8.20;;;1.30;;
19733;SDS011;10018;51.230;7.860;2022-07-10T04:25:08;9.87;;;1.40;;
19733;SDS011;10018;51.230;7.860;2022-07-10T04:27:34;6.10;;;1.27;;
19733;SDS011;10018;51.230;7.860;2022-07-10T04:30:00;5.30;;;1.30;;
19733;SDS011;10018;51.230;7.860;2022-07-10T04:32:26;7.70;;;1.40;;
19733;SDS011;10018;51.230;7.860;2022-07-10T04:34:53;6.07;;;1.10;;
19733;SDS011;10018;51.230;7.860;2022-07-10T04:37:21;4.60;;;1.10;;
19733;SDS011;10018;51.230;7.860;2022-07-10T04:39:47;5.47;;;1.30;;
19733;SDS011;10018;51.230;7.860;2022-07-10T04:42:12;6.77;;;1.47;;
19733;SDS011;10018;51.230;7.860;2022-07-10T04:44:38;9.87;;;1.30;;
19733;SDS011;10018;51.230;7.860;2022-07-10T04:47:04;6.43;;;1.83;;
19733;SDS011;10018;51.230;7.860;2022-07-10T04:49:30;5.53;;;1.50;;
19733;SDS011;10018;51.230;7.860;2022-07-10T04:51:57;8.40;;;1.57;;
19733;SDS011;10018;51.230;7.860;2022-07-10T04:54:22;7.73;;;1.57;;
19733;SDS011;10018;51.230;7.860;2022-07-10T04:56:48;7.70;;;1.50;;
19733;SDS011;10018;51.230;7.860;2022-07-10T04:59:13;7.87;;;1.40;;
19733;SDS011;10018;51.230;7.860;2022-07-10T05:01:39;6.50;;;1.27;;
19733;SDS011;10018;51.230;7.860;2022-07-10T05:04:05;6.63;;;1.33;;
19733;SDS011;10018;51.230;7.860;2022-07-10T05:06:30;4.83;;;1.23;;
19733;SDS011;10018;51.230;7.860;2022-07-10T05:08:56;6.40;;;1.37;;
19733;SDS011;10018;51.230;7.860;2022-07-10T05:11:22;7.90;;;1.67;;
19733;SDS011;10018;51.230;7.860;2022-07-10T05:13:48;6.17;;;1.10;;
19733;SDS011;10018;51.230;7.860;2022-07-10T05:16:14;5.83;;;1.40;;
19733;SDS011;10018;51.230;7.860;2022-07-10T05:18:40;9.23;;;1.40;;
19733;SDS011;10018;51.230;7.860;2022-07-10T05:21:06;7.00;;;1.37;;
19733;SDS011;10018;51.230;7.860;2022-07-10T05:23:32;7.77;;;1.57;;
19733;SDS011;10018;51.230;7.860;2022-07-10T05:25:58;6.00;;;1.13;;
19733;SDS011;10018;51.230;7.860;2022-07-10T05:28:24;6.77;;;1.13;;
19733;SDS011;10018;51.230;7.860;2022-07-10T05:30:49;7.07;;;1.33;;
19733;SDS011;10018;51.230;7.860;2022-07-10T05:33:15;8.40;;;1.90;;
19733;SDS011;10018;51.230;7.860;2022-07-10T05:35:41;8.40;;;1.67;;
19733;SDS011;10018;51.230;7.860;2022-07-10T05:38:06;11.97;;;1.70;;
19733;SDS011;10018;51.230;7.860;2022-07-10T05:40:32;6.73;;;1.60;;
19733;SDS011;10018;51.230;7.860;2022-07-10T05:42:58;8.73;;;2.20;;
19733;SDS011;10018;51.230;7.860;2022-07-10T05:45:24;7.07;;;1.60;;
19733;SDS011;10018;51.230;7.860;2022-07-10T05:47:49;9.70;;;2.00;;
19733;SDS011;10018;51.230;7.860;2022-07-10T05:50:15;9.27;;;2.20;;
19733;SDS011;10018;51.230;7.860;2022-07-10T05:52:41;7.37;;;2.10;;
19733;SDS011;10018;51.230;7.860;2022-07-10T05:55:07;8.47;;;2.03;;
19733;SDS011;10018;51.230;7.860;2022-07-10T05:57:33;7.87;;;2.30;;
19733;SDS011;10018;51.230;7.860;2022-07-10T05:59:59;8.07;;;2.50;;
19733;SDS011;10018;51.230;7.860;2022-07-10T06:02:25;7.83;;;2.30;;
19733;SDS011;10018;51.230;7.860;2022-07-10T06:04:50;11.13;;;2.10;;
19733;SDS011;10018;51.230;7.860;2022-07-10T06:07:16;8.37;;;1.83;;
19733;SDS011;10018;51.230;7.860;2022-07-10T06:09:41;10.27;;;2.17;;
19733;SDS011;10018;51.230;7.860;2022-07-10T06:12:07;10.03;;;2.20;;
19733;SDS011;10018;51.230;7.860;2022-07-10T06:14:33;7.20;;;2.30;;
19733;SDS011;10018;51.230;7.860;2022-07-10T06:16:58;9.93;;;1.90;;
19733;SDS011;10018;51.230;7.860;2022-07-10T06:19:24;6.17;;;1.90;;
19733;SDS011;10018;51.230;7.860;2022-07-10T06:21:50;10.07;;;2.13;;
19733;SDS011;10018;51.230;7.860;2022-07-10T06:24:35;10.07;;;1.63;;
19733;SDS011;10018;51.230;7.860;2022-07-10T06:27:01;8.47;;;2.10;;
19733;SDS011;10018;51.230;7.860;2022-07-10T06:29:26;7.80;;;1.50;;
19733;SDS011;10018;51.230;7.860;2022-07-10T06:31:52;6.77;;;1.37;;
19733;SDS011;10018;51.230;7.860;2022-07-10T06:34:17;5.13;;;1.30;;
19733;SDS011;10018;51.230;7.860;2022-07-10T06:36:44;8.00;;;1.60;;
19733;SDS011;10018;51.230;7.860;2022-07-10T06:39:09;8.57;;;1.60;;
19733;SDS011;10018;51.230;7.860;2022-07-10T06:41:35;9.60;;;1.90;;
19733;SDS011;10018;51.230;7.860;2022-07-10T06:44:01;9.03;;;1.60;;
19733;SDS011;10018;51.230;7.860;2022-07-10T06:46:27;12.60;;;1.90;;
19733;SDS011;10018;51.230;7.860;2022-07-10T06:48:52;6.60;;;1.47;;
19733;SDS011;10018;51.230;7.860;2022-07-10T06:51:18;5.77;;;1.47;;
19733;SDS011;10018;51.230;7.860;2022-07-10T06:53:44;6.33;;;1.50;;
19733;SDS011;10018;51.230;7.860;2022-07-10T06:56:10;9.73;;;1.33;;
19733;SDS011;10018;51.230;7.860;2022-07-10T06:58:35;5.07;;;1.47;;
19733;SDS011;10018;51.230;7.860;2022-07-10T07:01:01;10.13;;;1.70;;
19733;SDS011;10018;51.230;7.860;2022-07-10T07:03:26;5.50;;;1.10;;
19733;SDS011;10018;51.230;7.860;2022-07-10T07:05:52;7.17;;;1.30;;
19733;SDS011;10018;51.230;7.860;2022-07-10T07:08:17;7.60;;;1.30;;
19733;SDS011;10018;51.230;7.860;2022-07-10T07:10:43;8.60;;;1.20;;
19733;SDS011;10018;51.230;7.860;2022-07-10T07:13:09;5.57;;;1.10;;
19733;SDS011;10018;51.230;7.860;2022-07-10T07:15:35;7.40;;;1.40;;
19733;SDS011;10018;51.230;7.860;2022-07-10T07:18:03;7.37;;;1.20;;
19733;SDS011;10018;51.230;7.860;2022-07-10T07:20:41;6.73;;;1.20;;
19733;SDS011;10018;51.230;7.860;2022-07-10T07:23:25;9.40;;;1.20;;
19733;SDS011;10018;51.230;7.860;2022-07-10T07:25:50;5.23;;;1.10;;
19733;SDS011;10018;51.230;7.860;2022-07-10T07:28:16;4.67;;;0.93;;
19733;SDS011;10018;51.230;7.860;2022-07-10T07:30:44;6.23;;;1.27;;
19733;SDS011;10018;51.230;7.860;2022-07-10T07:33:11;7.07;;;1.53;;
19733;SDS011;10018;51.230;7.860;2022-07-10T07:35:37;5.40;;;1.50;;
19733;SDS011;10018;51.230;7.860;2022-07-10T07:38:03;5.57;;;1.47;;
19733;SDS011;10018;51.230;7.860;2022-07-10T07:40:28;8.03;;;1.73;;
19733;SDS011;10018;51.230;7.860;2022-07-10T07:42:54;8.87;;;1.73;;
19733;SDS011;10018;51.230;7.860;2022-07-10T07:45:21;5.53;;;1.40;;
19733;SDS011;10018;51.230;7.860;2022-07-10T07:47:51;10.17;;;1.43;;
19733;SDS011;10018;51.230;7.860;2022-07-10T07:50:21;7.10;;;1.40;;
19733;SDS011;10018;51.230;7.860;2022-07-10T07:52:48;7.77;;;1.13;;
19733;SDS011;10018;51.230;7.860;2022-07-10T07:55:15;7.07;;;1.20;;
19733;SDS011;10018;51.230;7.860;2022-07-10T07:57:41;5.60;;;1.10;;
19733;SDS011;10018;51.230;7.860;2022-07-10T08:00:08;5.33;;;1.33;;
19733;SDS011;10018;51.230;7.860;2022-07-10T08:02:35;6.17;;;1.23;;
19733;SDS011;10018;51.230;7.860;2022-07-10T08:05:01;7.33;;;1.03;;
19733;SDS011;10018;51.230;7.860;2022-07-10T08:10:07;5.90;;;1.27;;
19733;SDS011;10018;51.230;7.860;2022-07-10T08:12:34;7.57;;;1.27;;
19733;SDS011;10018;51.230;7.860;2022-07-10T08:15:00;10.53;;;1.30;;
19733;SDS011;10018;51.230;7.860;2022-07-10T08:17:26;5.60;;;1.27;;
19733;SDS011;10018;51.230;7.860;2022-07-10T08:19:52;4.20;;;1.20;;
19733;SDS011;10018;51.230;7.860;2022-07-10T08:22:18;5.07;;;1.10;;
19733;SDS011;10018;51.230;7.860;2022-07-10T08:24:44;6.53;;;1.07;;
19733;SDS011;10018;51.230;7.860;2022-07-10T08:27:09;5.27;;;1.20;;
19733;SDS011;10018;51.230;7.860;2022-07-10T08:29:35;4.33;;;1.10;;
19733;SDS011;10018;51.230;7.860;2022-07-10T08:32:00;5.97;;;1.27;;
19733;SDS011;10018;51.230;7.860;2022-07-10T08:34:26;5.83;;;1.10;;
19733;SDS011;10018;51.230;7.860;2022-07-10T08:36:52;5.10;;;1.23;;
19733;SDS011;10018;51.230;7.860;2022-07-10T08:39:18;7.07;;;1.23;;
19733;SDS011;10018;51.230;7.860;2022-07-10T08:41:46;8.03;;;1.20;;
19733;SDS011;10018;51.230;7.860;2022-07-10T08:44:15;8.43;;;1.10;;
19733;SDS011;10018;51.230;7.860;2022-07-10T08:46:46;4.93;;;1.20;;
19733;SDS011;10018;51.230;7.860;2022-07-10T08:49:12;7.07;;;1.30;;
19733;SDS011;10018;51.230;7.860;2022-07-10T08:51:41;7.20;;;1.20;;
19733;SDS011;10018;51.230;7.860;2022-07-10T08:54:18;8.43;;;1.33;;
19733;SDS011;10018;51.230;7.860;2022-07-10T08:56:45;7.87;;;1.57;;
19733;SDS011;10018;51.230;7.860;2022-07-10T08:59:12;4.53;;;1.63;;
19733;SDS011;10018;51.230;7.860;2022-07-10T09:01:39;5.37;;;1.83;;
19733;SDS011;10018;51.230;7.860;2022-07-10T09:04:05;6.73;;;1.93;;
19733;SDS011;10018;51.230;7.860;2022-07-10T09:06:30;11.00;;;2.20;;
19733;SDS011;10018;51.230;7.860;2022-07-10T09:09:03;7.87;;;2.00;;
19733;SDS011;10018;51.230;7.860;2022-07-10T09:11:30;9.50;;;2.40;;
19733;SDS011;10018;51.230;7.860;2022-07-10T09:13:57;9.10;;;2.00;;
19733;SDS011;10018;51.230;7.860;2022-07-10T09:16:32;10.97;;;2.20;;
19733;SDS011;10018;51.230;7.860;2022-07-10T09:19:19;7.23;;;1.63;;
19733;SDS011;10018;51.230;7.860;2022-07-10T09:21:53;8.67;;;1.47;;
19733;SDS011;10018;51.230;7.860;2022-07-10T09:24:20;6.27;;;1.30;;
19733;SDS011;10018;51.230;7.860;2022-07-10T09:27:08;4.53;;;1.70;;
19733;SDS011;10018;51.230;7.860;2022-07-10T09:29:44;5.93;;;1.57;;
19733;SDS011;10018;51.230;7.860;2022-07-10T09:32:14;5.07;;;1.37;;
19733;SDS011;10018;51.230;7.860;2022-07-10T09:34:42;10.20;;;1.33;;
19733;SDS011;10018;51.230;7.860;2022-07-10T09:37:22;9.50;;;1.57;;
19733;SDS011;10018;51.230;7.860;2022-07-10T09:39:54;9.63;;;1.63;;
19733;SDS011;10018;51.230;7.860;2022-07-10T09:42:24;8.07;;;1.57;;
19733;SDS011;10018;51.230;7.860;2022-07-10T09:50:22;7.60;;;1.40;;
19733;SDS011;10018;51.230;7.860;2022-07-10T09:52:50;6.47;;;1.30;;
19733;SDS011;10018;51.230;7.860;2022-07-10T09:55:17;4.47;;;1.50;;
19733;SDS011;10018;51.230;7.860;2022-07-10T09:57:45;6.30;;;1.40;;
19733;SDS011;10018;51.230;7.860;2022-07-10T10:00:23;9.83;;;1.70;;
19733;SDS011;10018;51.230;7.860;2022-07-10T10:02:52;8.33;;;1.23;;
19733;SDS011;10018;51.230;7.860;2022-07-10T10:05:21;6.20;;;1.87;;
19733;SDS011;10018;51.230;7.860;2022-07-10T10:07:55;4.07;;;1.10;;
19733;SDS011;10018;51.230;7.860;2022-07-10T10:10:21;3.53;;;1.10;;
19733;SDS011;10018;51.230;7.860;2022-07-10T10:12:48;4.93;;;1.20;;
19733;SDS011;10018;51.230;7.860;2022-07-10T10:15:19;6.70;;;1.60;;
19733;SDS011;10018;51.230;7.860;2022-07-10T10:17:47;4.20;;;1.37;;
19733;SDS011;10018;51.230;7.860;2022-07-10T10:20:15;4.17;;;1.20;;
19733;SDS011;10018;51.230;7.860;2022-07-10T10:23:00;3.83;;;1.37;;
19733;SDS011;10018;51.230;7.860;2022-07-10T10:25:26;4.57;;;1.10;;
19733;SDS011;10018;51.230;7.860;2022-07-10T10:27:56;3.30;;;1.07;;
19733;SDS011;10018;51.230;7.860;2022-07-10T10:30:23;6.50;;;1.23;;
19733;SDS011;10018;51.230;7.860;2022-07-10T10:32:49;7.27;;;1.00;;
19733;SDS011;10018;51.230;7.860;2022-07-10T10:38:19;3.63;;;1.33;;
19733;SDS011;10018;51.230;7.860;2022-07-10T10:40:44;3.97;;;1.13;;
19733;SDS011;10018;51.230;7.860;2022-07-10T10:45:48;5.63;;;1.20;;
19733;SDS011;10018;51.230;7.860;2022-07-10T10:48:19;7.00;;;1.10;;
19733;SDS011;10018;51.230;7.860;2022-07-10T10:53:18;4.07;;;1.00;;
19733;SDS011;10018;51.230;7.860;2022-07-10T11:01:23;3.13;;;1.20;;
19733;SDS011;10018;51.230;7.860;2022-07-10T11:04:14;3.80;;;1.20;;
19733;SDS011;10018;51.230;7.860;2022-07-10T11:06:43;3.27;;;1.40;;
19733;SDS011;10018;51.230;7.860;2022-07-10T11:09:28;4.50;;;1.53;;
19733;SDS011;10018;51.230;7.860;2022-07-10T11:12:02;3.87;;;1.50;;
19733;SDS011;10018;51.230;7.860;2022-07-10T11:14:38;3.27;;;1.77;;
19733;SDS011;10018;51.230;7.860;2022-07-10T11:17:07;5.20;;;1.70;;
19733;SDS011;10018;51.230;7.860;2022-07-10T11:19:34;5.60;;;1.93;;
19733;SDS011;10018;51.230;7.860;2022-07-10T11:24:42;5.80;;;2.00;;
19733;SDS011;10018;51.230;7.860;2022-07-10T11:27:29;5.20;;;1.60;;
19733;SDS011;10018;51.230;7.860;2022-07-10T11:30:07;5.53;;;1.90;;
19733;SDS011;10018;51.230;7.860;2022-07-10T11:32:32;5.17;;;2.17;;
19733;SDS011;10018;51.230;7.860;2022-07-10T11:34:58;5.40;;;2.30;;
19733;SDS011;10018;51.230;7.860;2022-07-10T11:37:24;3.53;;;1.67;;
19733;SDS011;10018;51.230;7.860;2022-07-10T11:40:07;4.60;;;1.90;;
19733;SDS011;10018;51.230;7.860;2022-07-10T11:42:53;3.20;;;1.70;;
19733;SDS011;10018;51.230;7.860;2022-07-10T11:45:26;3.57;;;1.40;;
19733;SDS011;10018;51.230;7.860;2022-07-10T11:47:57;3.40;;;1.50;;
19733;SDS011;10018;51.230;7.860;2022-07-10T11:50:24;5.10;;;1.57;;
19733;SDS011;10018;51.230;7.860;2022-07-10T11:52:50;5.20;;;1.30;;
19733;SDS011;10018;51.230;7.860;2022-07-10T11:55:20;3.27;;;1.30;;
19733;SDS011;10018;51.230;7.860;2022-07-10T11:57:47;4.20;;;1.20;;
19733;SDS011;10018;51.230;7.860;2022-07-10T12:00:26;5.83;;;1.30;;
19733;SDS011;10018;51.230;7.860;2022-07-10T12:02:54;2.53;;;1.20;;
19733;SDS011;10018;51.230;7.860;2022-07-10T12:05:31;2.90;;;1.47;;
19733;SDS011;10018;51.230;7.860;2022-07-10T12:07:57;1.37;;;0.97;;
19733;SDS011;10018;51.230;7.860;2022-07-10T12:10:26;2.37;;;1.10;;
19733;SDS011;10018;51.230;7.860;2022-07-10T12:13:14;3.00;;;1.50;;
19733;SDS011;10018;51.230;7.860;2022-07-10T12:15:46;2.33;;;0.90;;
19733;SDS011;10018;51.230;7.860;2022-07-10T12:18:16;2.20;;;1.20;;
19733;SDS011;10018;51.230;7.860;2022-07-10T12:20:44;2.37;;;1.20;;
19733;SDS011;10018;51.230;7.860;2022-07-10T12:23:12;2.30;;;1.00;;
19733;SDS011;10018;51.230;7.860;2022-07-10T12:25:41;2.90;;;1.50;;
19733;SDS011;10018;51.230;7.860;2022-07-10T12:28:08;1.70;;;1.30;;
19733;SDS011;10018;51.230;7.860;2022-07-10T12:30:47;1.50;;;1.00;;
19733;SDS011;10018;51.230;7.860;2022-07-10T12:33:20;3.03;;;1.13;;
19733;SDS011;10018;51.230;7.860;2022-07-10T12:38:23;3.77;;;1.53;;
19733;SDS011;10018;51.230;7.860;2022-07-10T12:41:08;2.33;;;1.37;;
19733;SDS011;10018;51.230;7.860;2022-07-10T12:43:37;2.40;;;1.70;;
19733;SDS011;10018;51.230;7.860;2022-07-10T12:46:08;2.80;;;1.70;;
19733;SDS011;10018;51.230;7.860;2022-07-10T12:48:41;2.80;;;1.60;;
19733;SDS011;10018;51.230;7.860;2022-07-10T12:51:26;2.53;;;1.70;;
19733;SDS011;10018;51.230;7.860;2022-07-10T12:53:53;3.27;;;2.00;;
19733;SDS011;10018;51.230;7.860;2022-07-10T12:56:55;3.43;;;2.30;;
19733;SDS011;10018;51.230;7.860;2022-07-10T12:59:21;3.13;;;2.30;;
19733;SDS011;10018;51.230;7.860;2022-07-10T13:01:46;4.30;;;2.43;;
19733;SDS011;10018;51.230;7.860;2022-07-10T13:04:12;3.83;;;2.83;;
19733;SDS011;10018;51.230;7.860;2022-07-10T13:06:38;5.50;;;2.90;;
19733;SDS011;10018;51.230;7.860;2022-07-10T13:11:47;4.60;;;3.13;;
19733;SDS011;10018;51.230;7.860;2022-07-10T13:14:13;5.03;;;3.40;;
19733;SDS011;10018;51.230;7.860;2022-07-10T13:16:38;4.73;;;3.63;;
19733;SDS011;10018;51.230;7.860;2022-07-10T13:19:04;7.10;;;3.93;;
19733;SDS011;10018;51.230;7.860;2022-07-10T13:21:30;5.10;;;3.50;;
19733;SDS011;10018;51.230;7.860;2022-07-10T13:23:55;5.33;;;3.77;;
19733;SDS011;10018;51.230;7.860;2022-07-10T13:26:21;6.03;;;4.00;;
19733;SDS011;10018;51.230;7.860;2022-07-10T13:28:46;5.67;;;4.10;;
19733;SDS011;10018;51.230;7.860;2022-07-10T13:31:12;7.13;;;3.63;;
19733;SDS011;10018;51.230;7.860;2022-07-10T13:33:38;4.63;;;3.20;;
19733;SDS011;10018;51.230;7.860;2022-07-10T13:36:03;6.90;;;4.23;;
19733;SDS011;10018;51.230;7.860;2022-07-10T13:38:29;5.23;;;4.13;;
19733;SDS011;10018;51.230;7.860;2022-07-10T13:40:56;6.57;;;4.57;;
19733;SDS011;10018;51.230;7.860;2022-07-10T13:43:22;6.93;;;5.00;;
19733;SDS011;10018;51.230;7.860;2022-07-10T13:45:53;6.13;;;4.83;;
19733;SDS011;10018;51.230;7.860;2022-07-10T13:48:21;6.30;;;4.40;;
19733;SDS011;10018;51.230;7.860;2022-07-10T13:50:47;5.77;;;5.17;;
19733;SDS011;10018;51.230;7.860;2022-07-10T13:53:12;6.03;;;4.23;;
19733;SDS011;10018;51.230;7.860;2022-07-10T13:55:38;6.17;;;4.33;;
19733;SDS011;10018;51.230;7.860;2022-07-10T13:58:04;4.93;;;4.20;;
19733;SDS011;10018;51.230;7.860;2022-07-10T14:00:30;5.37;;;4.20;;
19733;SDS011;10018;51.230;7.860;2022-07-10T14:02:56;5.67;;;4.33;;
19733;SDS011;10018;51.230;7.860;2022-07-10T14:05:22;5.00;;;4.17;;
19733;SDS011;10018;51.230;7.860;2022-07-10T14:07:49;4.97;;;4.17;;
19733;SDS011;10018;51.230;7.860;2022-07-10T14:10:14;6.33;;;4.20;;
19733;SDS011;10018;51.230;7.860;2022-07-10T14:12:40;6.00;;;4.70;;
19733;SDS011;10018;51.230;7.860;2022-07-10T14:15:06;8.03;;;5.70;;
19733;SDS011;10018;51.230;7.860;2022-07-10T14:17:32;6.10;;;4.33;;
19733;SDS011;10018;51.230;7.860;2022-07-10T14:19:58;6.93;;;4.33;;
19733;SDS011;10018;51.230;7.860;2022-07-10T14:22:23;5.90;;;4.27;;
19733;SDS011;10018;51.230;7.860;2022-07-10T14:24:49;9.83;;;6.67;;
19733;SDS011;10018;51.230;7.860;2022-07-10T14:27:16;8.33;;;6.03;;
19733;SDS011;10018;51.230;7.860;2022-07-10T14:29:42;7.57;;;4.87;;
19733;SDS011;10018;51.230;7.860;2022-07-10T14:32:08;5.87;;;4.17;;
19733;SDS011;10018;51.230;7.860;2022-07-10T14:34:33;4.30;;;3.50;;
19733;SDS011;10018;51.230;7.860;2022-07-10T14:36:59;4.37;;;3.53;;
19733;SDS011;10018;51.230;7.860;2022-07-10T14:39:25;4.97;;;3.60;;
19733;SDS011;10018;51.230;7.860;2022-07-10T14:41:50;4.30;;;3.47;;
19733;SDS011;10018;51.230;7.860;2022-07-10T14:44:16;4.40;;;3.30;;
19733;SDS011;10018;51.230;7.860;2022-07-10T14:46:41;4.27;;;3.13;;
19733;SDS011;10018;51.230;7.860;2022-07-10T14:49:07;4.97;;;3.23;;
19733;SDS011;10018;51.230;7.860;2022-07-10T14:51:33;3.90;;;2.80;;
19733;SDS011;10018;51.230;7.860;2022-07-10T14:54:00;4.07;;;2.90;;
19733;SDS011;10018;51.230;7.860;2022-07-10T14:56:26;4.13;;;2.77;;
19733;SDS011;10018;51.230;7.860;2022-07-10T14:58:51;5.00;;;2.97;;
19733;SDS011;10018;51.230;7.860;2022-07-10T15:01:17;4.20;;;3.10;;
19733;SDS011;10018;51.230;7.860;2022-07-10T15:03:43;5.00;;;3.37;;
19733;SDS011;10018;51.230;7.860;2022-07-10T15:06:08;3.87;;;3.20;;
19733;SDS011;10018;51.230;7.860;2022-07-10T15:08:34;4.03;;;2.87;;
19733;SDS011;10018;51.230;7.860;2022-07-10T15:11:00;5.17;;;3.50;;
19733;SDS011;10018;51.230;7.860;2022-07-10T15:13:29;5.20;;;3.80;;
19733;SDS011;10018;51.230;7.860;2022-07-10T15:15:54;6.40;;;4.00;;
19733;SDS011;10018;51.230;7.860;2022-07-10T15:18:20;4.70;;;4.00;;
19733;SDS011;10018;51.230;7.860;2022-07-10T15:20:46;6.73;;;5.20;;